createdAt,value
2023-03-31T00:01:25.247Z,85.45
2023-03-31T00:04:02.085Z,85.84
2023-03-31T00:06:29.890Z,85.11
2023-03-31T00:09:01.995Z,84.94
2023-03-31T00:11:29.844Z,84.28
2023-03-31T00:13:57.569Z,85.37
2023-03-31T00:16:25.605Z,84.71
2023-03-31T00:18:52.915Z,84.69
2023-03-31T00:21:25.544Z,83.53
2023-03-31T00:23:54.076Z,85.27
2023-03-31T00:26:30.655Z,84.32
2023-03-31T00:28:58.108Z,85.24
2023-03-31T00:31:25.505Z,84.87
2023-03-31T00:33:54.140Z,85.22
2023-03-31T00:36:21.779Z,85.28
2023-03-31T00:38:59.202Z,84.71
2023-03-31T00:41:27.644Z,84.46
2023-03-31T00:44:13.744Z,83.69
2023-03-31T00:46:51.133Z,84.54
2023-03-31T00:49:30.151Z,83.32
2023-03-31T00:52:02.408Z,84.17
2023-03-31T00:54:30.524Z,85.16
2023-03-31T00:56:58.728Z,84.46
2023-03-31T00:59:27.993Z,83.38
2023-03-31T01:01:59.229Z,83.65
2023-03-31T01:04:28.390Z,83.09
2023-03-31T01:07:00.993Z,83.51
2023-03-31T01:09:34.900Z,84.38
2023-03-31T01:12:07.758Z,84.52
2023-03-31T01:14:35.681Z,84.26
2023-03-31T01:17:05.321Z,84.43
2023-03-31T01:20:14.008Z,85.53
2023-03-31T01:22:59.501Z,84.77
2023-03-31T01:25:45.451Z,84.39
2023-03-31T01:28:18.580Z,83.97
2023-03-31T01:31:01.141Z,85.91
2023-03-31T01:33:55.125Z,85.42
2023-03-31T01:36:42.578Z,84.40
2023-03-31T01:39:18.744Z,84.43
2023-03-31T01:42:10.262Z,85.61
2023-03-31T01:44:55.418Z,85.03
2023-03-31T01:47:46.109Z,84.50
2023-03-31T01:50:36.550Z,84.76
2023-03-31T01:53:15.060Z,84.25
2023-03-31T01:56:08.433Z,84.14
2023-03-31T01:58:38.862Z,83.79
2023-03-31T02:01:17.064Z,85.31
2023-03-31T02:03:48.394Z,85.45
2023-03-31T02:06:22.025Z,85.60
2023-03-31T02:08:58.502Z,86.50
2023-03-31T02:11:25.905Z,86.25
2023-03-31T02:13:54.248Z,85.77
2023-03-31T02:16:24.590Z,86.08
2023-03-31T02:18:54.287Z,86.26
2023-03-31T02:21:22.891Z,87.05
2023-03-31T02:23:51.059Z,86.69
2023-03-31T02:26:22.037Z,86.96
2023-03-31T02:28:49.836Z,86.88
2023-03-31T02:31:33.261Z,87.67
2023-03-31T02:34:01.744Z,87.19
2023-03-31T02:36:29.689Z,88.29
2023-03-31T02:39:09.945Z,88.83
2023-03-31T02:41:37.411Z,88.82
2023-03-31T02:44:04.651Z,88.18
2023-03-31T02:46:32.771Z,88.84
2023-03-31T02:49:01.237Z,88.87
2023-03-31T02:52:06.956Z,88.70
2023-03-31T02:54:56.234Z,89.47
2023-03-31T02:57:55.392Z,90.22
2023-03-31T03:00:47.245Z,90.76
2023-03-31T03:03:45.947Z,91.02
2023-03-31T03:06:53.865Z,91.54
2023-03-31T03:09:29.867Z,92.10
2023-03-31T03:12:06.753Z,92.35
2023-03-31T03:15:03.222Z,92.77
2023-03-31T03:17:40.361Z,93.18
2023-03-31T03:20:09.317Z,92.88
2023-03-31T03:22:38.954Z,93.68
2023-03-31T03:25:11.705Z,93.18
2023-03-31T03:27:40.440Z,94.12
2023-03-31T03:30:09.488Z,93.84
2023-03-31T03:32:37.404Z,93.63
2023-03-31T03:35:05.340Z,93.54
2023-03-31T03:37:32.767Z,93.46
2023-03-31T03:40:00.073Z,93.92
2023-03-31T03:42:28.039Z,93.38
2023-03-31T03:44:57.920Z,93.81
2023-03-31T03:47:25.421Z,94.23
2023-03-31T03:49:53.065Z,93.60
2023-03-31T03:52:21.556Z,93.39
2023-03-31T03:54:49.220Z,93.66
2023-03-31T03:57:16.751Z,94.32
2023-03-31T03:59:44.132Z,93.13
2023-03-31T04:02:11.482Z,93.03
2023-03-31T04:04:39.234Z,92.97
2023-03-31T04:07:06.581Z,93.26
2023-03-31T04:09:33.890Z,93.21
2023-03-31T04:12:02.196Z,93.40
2023-03-31T04:14:29.588Z,93.69
2023-03-31T04:17:02.718Z,94.02
2023-03-31T04:19:31.174Z,93.46
2023-03-31T04:22:02.930Z,93.19
2023-03-31T04:24:33.602Z,94.08
2023-03-31T04:27:01.137Z,93.95
2023-03-31T04:29:28.365Z,94.28
2023-03-31T04:31:58.890Z,93.25
2023-03-31T04:34:34.948Z,93.96
2023-03-31T04:37:03.548Z,93.59
2023-03-31T04:39:30.993Z,94.10
2023-03-31T04:41:58.992Z,93.43
2023-03-31T04:44:27.299Z,93.17
2023-03-31T04:46:54.935Z,92.02
2023-03-31T04:49:25.185Z,91.59
2023-03-31T04:51:52.453Z,91.61
2023-03-31T04:54:26.152Z,90.30
2023-03-31T04:56:54.771Z,89.02
2023-03-31T04:59:22.055Z,89.49
2023-03-31T05:01:49.378Z,90.63
2023-03-31T05:04:16.716Z,89.55
2023-03-31T05:06:44.244Z,88.47
2023-03-31T05:09:11.666Z,88.79
2023-03-31T05:11:39.197Z,88.34
2023-03-31T05:14:06.905Z,86.83
2023-03-31T05:16:34.279Z,84.60
2023-03-31T05:19:01.622Z,84.36
2023-03-31T05:21:30.635Z,83.68
2023-03-31T05:23:58.084Z,82.20
2023-03-31T05:26:25.627Z,82.70
2023-03-31T05:28:53.985Z,82.52
2023-03-31T05:31:22.230Z,80.54
2023-03-31T05:33:50.612Z,78.70
2023-03-31T05:36:18.559Z,78.71
2023-03-31T05:38:47.672Z,77.88
2023-03-31T05:41:16.799Z,78.63
2023-03-31T05:43:44.130Z,77.07
2023-03-31T05:46:11.600Z,74.29
2023-03-31T05:48:39.142Z,74.09
2023-03-31T05:51:06.518Z,73.70
2023-03-31T05:53:34.378Z,71.23
2023-03-31T05:56:06.311Z,69.17
2023-03-31T05:58:37.350Z,70.02
2023-03-31T06:01:10.323Z,67.96
2023-03-31T06:03:41.528Z,68.46
2023-03-31T06:06:10.521Z,67.82
2023-03-31T06:08:38.018Z,66.97
2023-03-31T06:11:06.974Z,68.40
2023-03-31T06:13:35.743Z,65.21
2023-03-31T06:16:05.722Z,62.22
2023-03-31T06:18:35.104Z,60.00
2023-03-31T06:21:02.782Z,57.81
2023-03-31T06:23:30.980Z,58.16
2023-03-31T06:26:07.114Z,56.42
2023-03-31T06:28:36.503Z,58.09
2023-03-31T06:31:05.400Z,57.04
2023-03-31T06:33:33.991Z,56.73
2023-03-31T06:36:05.808Z,52.72
2023-03-31T06:38:34.180Z,52.86
2023-03-31T06:41:02.955Z,52.21
2023-03-31T06:43:31.391Z,51.41
2023-03-31T06:45:58.750Z,50.72
2023-03-31T06:48:26.456Z,49.72
2023-03-31T06:50:54.340Z,49.08
2023-03-31T06:53:24.551Z,47.13
2023-03-31T06:55:52.191Z,46.58
2023-03-31T06:58:20.082Z,44.32
2023-03-31T07:00:47.583Z,44.25
2023-03-31T07:03:25.840Z,43.88
2023-03-31T07:05:53.567Z,43.97
2023-03-31T07:08:21.890Z,43.38
2023-03-31T07:10:50.254Z,42.92
2023-03-31T07:13:20.246Z,40.62
2023-03-31T07:15:48.236Z,40.69
2023-03-31T07:18:16.252Z,38.75
2023-03-31T07:20:43.734Z,38.35
2023-03-31T07:23:11.343Z,36.86
2023-03-31T07:25:39.885Z,36.90
2023-03-31T07:28:07.827Z,36.61
2023-03-31T07:30:35.129Z,35.56
2023-03-31T07:33:02.684Z,35.83
2023-03-31T07:35:30.971Z,35.21
2023-03-31T07:37:58.764Z,34.99
2023-03-31T07:40:27.807Z,34.78
2023-03-31T07:42:55.175Z,35.65
2023-03-31T07:45:23.979Z,34.16
2023-03-31T07:47:52.298Z,34.00
2023-03-31T07:50:20.826Z,33.37
2023-03-31T07:52:48.068Z,33.96
2023-03-31T07:55:15.573Z,32.91
2023-03-31T07:57:46.904Z,33.42
2023-03-31T08:00:15.803Z,33.67
2023-03-31T08:02:46.574Z,33.31
2023-03-31T08:05:15.150Z,34.05
2023-03-31T08:07:43.479Z,34.13
2023-03-31T08:10:16.325Z,34.19
2023-03-31T08:12:44.472Z,33.78
2023-03-31T08:15:11.771Z,36.32
2023-03-31T08:17:39.647Z,36.86
2023-03-31T08:20:08.461Z,37.53
2023-03-31T08:22:39.072Z,37.59
2023-03-31T08:25:08.315Z,37.79
2023-03-31T08:27:37.082Z,38.23
2023-03-31T08:30:06.634Z,39.01
2023-03-31T08:32:43.545Z,38.52
2023-03-31T08:35:10.953Z,38.49
2023-03-31T08:37:39.903Z,38.37
2023-03-31T08:40:09.786Z,38.38
2023-03-31T08:42:40.757Z,38.62
2023-03-31T08:45:23.359Z,39.59
2023-03-31T08:47:53.830Z,39.18
2023-03-31T08:50:23.943Z,39.90
2023-03-31T08:53:05.049Z,40.75
2023-03-31T08:55:46.613Z,40.47
2023-03-31T08:58:42.884Z,40.66
2023-03-31T09:01:19.872Z,41.00
2023-03-31T09:04:12.802Z,40.99
2023-03-31T09:07:02.486Z,40.64
2023-03-31T09:09:48.358Z,40.99
2023-03-31T09:12:19.828Z,41.21
2023-03-31T09:15:17.714Z,41.00
2023-03-31T09:17:45.165Z,40.78
2023-03-31T09:20:15.987Z,40.91
2023-03-31T09:22:47.161Z,41.35
2023-03-31T09:25:24.106Z,41.00
2023-03-31T09:27:51.513Z,41.26
2023-03-31T09:30:32.178Z,42.11
2023-03-31T09:33:12.708Z,42.59
2023-03-31T09:35:40.456Z,42.34
2023-03-31T09:38:11.656Z,42.38
2023-03-31T09:40:40.453Z,42.60
2023-03-31T09:43:16.446Z,42.03
2023-03-31T09:45:46.211Z,41.79
2023-03-31T09:48:21.730Z,41.90
2023-03-31T09:50:50.893Z,42.36
2023-03-31T09:53:22.144Z,43.19
2023-03-31T09:55:52.631Z,42.69
2023-03-31T09:58:20.959Z,42.25
2023-03-31T10:01:05.344Z,42.02
2023-03-31T10:03:37.151Z,42.30
2023-03-31T10:06:10.445Z,41.88
2023-03-31T10:09:04.159Z,42.23
2023-03-31T10:11:31.564Z,42.08
2023-03-31T10:14:04.056Z,41.76
2023-03-31T10:16:35.087Z,42.04
2023-03-31T10:19:36.474Z,41.87
2023-03-31T10:22:16.729Z,41.91
2023-03-31T10:24:45.473Z,41.69
2023-03-31T10:27:30.043Z,42.19
2023-03-31T10:30:01.971Z,42.44
2023-03-31T10:32:31.153Z,43.23
2023-03-31T10:35:11.894Z,42.70
2023-03-31T10:37:40.721Z,42.48
2023-03-31T10:40:27.286Z,42.52
2023-03-31T10:43:13.232Z,42.11
2023-03-31T10:45:51.649Z,42.19
2023-03-31T10:48:23.766Z,41.90
2023-03-31T10:50:51.183Z,42.11
2023-03-31T10:53:18.815Z,41.83
2023-03-31T10:56:19.014Z,41.64
2023-03-31T10:58:58.350Z,42.40
2023-03-31T11:01:54.292Z,42.02
2023-03-31T11:04:43.453Z,42.26
2023-03-31T11:07:36.786Z,41.88
2023-03-31T11:10:25.791Z,41.48
2023-03-31T11:13:01.249Z,41.65
2023-03-31T11:15:57.013Z,40.75
2023-03-31T11:18:46.812Z,41.10
2023-03-31T11:21:39.743Z,40.81
2023-03-31T11:24:51.100Z,40.48
2023-03-31T11:27:31.473Z,40.08
2023-03-31T11:30:27.088Z,40.24
2023-03-31T11:33:22.730Z,40.52
2023-03-31T11:35:57.096Z,40.40
2023-03-31T11:38:27.370Z,39.88
2023-03-31T11:40:59.915Z,39.39
2023-03-31T11:43:42.889Z,39.06
2023-03-31T11:46:17.948Z,39.11
2023-03-31T11:48:58.181Z,39.00
2023-03-31T11:51:47.404Z,38.60
2023-03-31T11:54:38.176Z,39.09
2023-03-31T11:57:27.711Z,38.96
2023-03-31T11:59:59.915Z,38.90
2023-03-31T12:02:50.557Z,38.85
2023-03-31T12:05:18.065Z,38.71
2023-03-31T12:08:07.054Z,39.01
2023-03-31T12:10:35.967Z,38.54
2023-03-31T12:13:43.666Z,38.02
2023-03-31T12:16:13.043Z,37.76
2023-03-31T12:18:45.468Z,37.45
2023-03-31T12:21:18.088Z,37.28
2023-03-31T12:23:46.180Z,36.36
2023-03-31T12:26:32.001Z,36.45
2023-03-31T12:29:01.741Z,36.61
2023-03-31T12:31:32.662Z,36.63
2023-03-31T12:34:05.988Z,37.30
2023-03-31T12:36:42.196Z,37.22
2023-03-31T12:39:18.036Z,37.34
2023-03-31T12:42:24.658Z,36.95
2023-03-31T12:44:57.094Z,36.87
2023-03-31T12:47:45.699Z,36.81
2023-03-31T12:50:22.047Z,36.92
2023-03-31T12:52:56.921Z,36.54
2023-03-31T12:55:37.780Z,35.50
2023-03-31T12:58:32.381Z,35.43
2023-03-31T13:01:14.751Z,34.58
2023-03-31T13:04:08.510Z,33.62
2023-03-31T13:06:38.492Z,33.86
2023-03-31T13:09:08.668Z,33.66
2023-03-31T13:11:37.099Z,33.23
2023-03-31T13:14:23.161Z,33.11
2023-03-31T13:17:11.050Z,32.82
2023-03-31T13:19:39.972Z,33.06
2023-03-31T13:22:07.521Z,33.12
2023-03-31T13:24:34.866Z,33.29
2023-03-31T13:27:28.342Z,32.60
2023-03-31T13:29:56.368Z,32.89
2023-03-31T13:32:25.467Z,32.58
2023-03-31T13:35:00.497Z,32.77
2023-03-31T13:37:45.267Z,32.77
2023-03-31T13:40:45.788Z,33.54
2023-03-31T13:43:14.198Z,33.65
2023-03-31T13:46:19.058Z,34.26
2023-03-31T13:49:11.257Z,34.85
2023-03-31T13:52:04.327Z,35.54
2023-03-31T13:54:37.871Z,36.39
2023-03-31T13:57:39.344Z,36.37
2023-03-31T14:00:24.758Z,36.60
2023-03-31T14:03:14.325Z,36.82
2023-03-31T14:06:02.816Z,37.07
2023-03-31T14:08:38.279Z,37.13
2023-03-31T14:11:34.882Z,37.96
2023-03-31T14:14:07.827Z,38.29
2023-03-31T14:16:57.120Z,38.55
2023-03-31T14:19:39.471Z,38.37
2023-03-31T14:22:16.268Z,38.66
2023-03-31T14:25:13.939Z,38.91
2023-03-31T14:28:13.741Z,38.74
2023-03-31T14:31:03.036Z,38.79
2023-03-31T14:33:39.719Z,38.61
2023-03-31T14:36:30.801Z,39.06
2023-03-31T14:39:02.496Z,39.12
2023-03-31T14:41:30.036Z,39.05
2023-03-31T14:44:04.877Z,39.01
2023-03-31T14:46:33.062Z,39.20
2023-03-31T14:49:18.581Z,39.34
2023-03-31T14:51:48.750Z,39.61
2023-03-31T14:54:18.071Z,39.90
2023-03-31T14:56:51.947Z,39.70
2023-03-31T14:59:21.976Z,40.25
2023-03-31T15:01:50.434Z,40.38
2023-03-31T15:04:25.921Z,40.69
2023-03-31T15:07:02.539Z,40.78
2023-03-31T15:09:31.368Z,41.05
2023-03-31T15:12:03.731Z,41.32
2023-03-31T15:14:34.123Z,41.28
2023-03-31T15:17:01.843Z,41.80
2023-03-31T15:19:33.314Z,41.60
2023-03-31T15:22:05.786Z,41.42
2023-03-31T15:24:33.261Z,41.88
2023-03-31T15:27:01.898Z,42.08
2023-03-31T15:29:29.083Z,41.97
2023-03-31T15:31:57.383Z,42.17
2023-03-31T15:34:33.580Z,42.45
2023-03-31T15:37:06.648Z,42.39
2023-03-31T15:39:34.612Z,42.25
2023-03-31T15:42:02.886Z,42.85
2023-03-31T15:44:33.928Z,42.83
2023-03-31T15:47:02.415Z,43.51
2023-03-31T15:49:29.812Z,43.29
2023-03-31T15:51:57.695Z,43.78
2023-03-31T15:54:34.971Z,44.08
2023-03-31T15:57:04.151Z,44.17
2023-03-31T16:02:43.906Z,45.13
2023-03-31T16:05:27.066Z,45.46
2023-03-31T16:07:56.933Z,45.19
2023-03-31T16:10:24.349Z,45.38
2023-03-31T16:12:59.626Z,45.49
2023-03-31T16:15:44.824Z,46.15
2023-03-31T16:18:18.670Z,46.89
2023-03-31T16:20:52.121Z,46.12
2023-03-31T16:23:28.904Z,46.70
2023-03-31T16:25:56.438Z,46.70
2023-03-31T16:28:27.782Z,46.21
2023-03-31T16:30:55.120Z,45.71
2023-03-31T16:33:25.469Z,45.57
2023-03-31T16:35:55.953Z,45.49
2023-03-31T16:38:24.259Z,45.31
2023-03-31T16:40:56.228Z,44.57
2023-03-31T16:43:24.873Z,44.56
2023-03-31T16:45:58.359Z,44.71
2023-03-31T16:48:27.341Z,44.32
2023-03-31T16:50:58.105Z,43.86
2023-03-31T16:53:27.924Z,43.88
2023-03-31T16:55:55.576Z,43.35
2023-03-31T16:58:24.407Z,43.97
2023-03-31T17:00:51.785Z,43.95
2023-03-31T17:03:20.656Z,43.98
2023-03-31T17:05:52.794Z,44.52
2023-03-31T17:08:21.737Z,44.63
2023-03-31T17:10:53.980Z,44.66
2023-03-31T17:13:22.819Z,44.45
2023-03-31T17:15:52.144Z,44.67
2023-03-31T17:18:23.336Z,44.74
2023-03-31T17:20:50.705Z,44.53
2023-03-31T17:23:17.922Z,44.67
2023-03-31T17:25:52.930Z,44.99
2023-03-31T17:28:20.279Z,45.38
2023-03-31T17:30:50.299Z,45.22
2023-03-31T17:33:18.467Z,45.62
2023-03-31T17:35:45.707Z,45.73
2023-03-31T17:38:14.451Z,46.00
2023-03-31T17:40:41.834Z,46.01
2023-03-31T17:43:09.487Z,46.43
2023-03-31T17:45:36.937Z,46.78
2023-03-31T17:48:06.983Z,46.75
2023-03-31T17:50:34.669Z,47.17
2023-03-31T17:53:01.963Z,47.36
2023-03-31T17:55:29.595Z,47.59
2023-03-31T17:57:57.335Z,48.07
2023-03-31T18:00:24.644Z,48.50
2023-03-31T18:02:52.412Z,48.58
2023-03-31T18:05:19.772Z,48.98
2023-03-31T18:07:47.735Z,49.55
2023-03-31T18:10:14.939Z,50.55
2023-03-31T18:12:47.790Z,50.85
2023-03-31T18:15:15.884Z,51.66
2023-03-31T18:17:43.476Z,52.56
2023-03-31T18:20:11.806Z,53.32
2023-03-31T18:22:39.294Z,53.75
2023-03-31T18:25:07.397Z,54.48
2023-03-31T18:27:35.389Z,55.06
2023-03-31T18:30:03.132Z,55.68
2023-03-31T18:32:32.875Z,56.29
2023-03-31T18:35:01.030Z,56.53
2023-03-31T18:37:28.918Z,57.15
2023-03-31T18:39:56.161Z,57.49
2023-03-31T18:42:25.755Z,58.21
2023-03-31T18:44:53.162Z,58.81
2023-03-31T18:47:21.477Z,58.54
2023-03-31T18:49:53.359Z,58.91
2023-03-31T18:52:20.753Z,59.40
2023-03-31T18:54:47.971Z,60.04
2023-03-31T18:57:15.671Z,60.45
2023-03-31T18:59:45.371Z,60.74
2023-03-31T19:02:14.058Z,61.06
2023-03-31T19:04:41.660Z,62.01
2023-03-31T19:07:09.101Z,62.96
2023-03-31T19:09:37.044Z,62.77
2023-03-31T19:12:11.120Z,63.71
2023-03-31T19:14:40.998Z,64.03
2023-03-31T19:17:08.749Z,64.98
2023-03-31T19:19:36.740Z,66.40
2023-03-31T19:22:05.058Z,66.60
2023-03-31T19:24:32.467Z,67.93
2023-03-31T19:27:01.871Z,69.01
2023-03-31T19:29:30.382Z,69.44
2023-03-31T19:32:00.497Z,70.29
2023-03-31T19:34:27.762Z,71.32
2023-03-31T19:36:55.113Z,72.04
2023-03-31T19:39:22.635Z,72.95
2023-03-31T19:41:50.369Z,73.65
2023-03-31T19:44:17.916Z,74.53
2023-03-31T19:46:48.237Z,74.90
2023-03-31T19:49:15.879Z,75.76
2023-03-31T19:51:43.137Z,76.49
2023-03-31T19:54:11.432Z,77.06
2023-03-31T19:56:38.994Z,78.02
2023-03-31T19:59:07.807Z,78.67
2023-03-31T20:01:35.739Z,79.25
2023-03-31T20:04:05.054Z,79.85
2023-03-31T20:06:33.965Z,80.56
2023-03-31T20:09:01.600Z,81.15
2023-03-31T20:11:29.683Z,81.72
2023-03-31T20:13:57.351Z,82.44
2023-03-31T20:16:26.077Z,82.91
2023-03-31T20:19:00.041Z,83.91
2023-03-31T20:21:28.838Z,84.59
2023-03-31T20:23:58.917Z,85.07
2023-03-31T20:26:31.581Z,85.08
2023-03-31T20:28:59.294Z,85.77
2023-03-31T20:31:28.189Z,86.40
2023-03-31T20:33:56.195Z,86.28
2023-03-31T20:36:25.380Z,86.68
2023-03-31T20:38:53.918Z,87.19
2023-03-31T20:41:23.917Z,87.83
2023-03-31T20:43:51.482Z,88.05
2023-03-31T20:46:18.793Z,88.63
2023-03-31T20:48:48.077Z,89.36
2023-03-31T20:51:17.336Z,89.93
2023-03-31T20:53:46.780Z,90.28
2023-03-31T20:56:15.799Z,91.32
2023-03-31T20:58:44.406Z,92.34
2023-03-31T21:01:12.698Z,93.44
2023-03-31T21:03:41.266Z,94.86
2023-03-31T21:06:12.785Z,95.79
2023-03-31T21:08:45.539Z,97.05
2023-03-31T21:11:13.624Z,98.04
2023-03-31T21:13:41.456Z,98.47
2023-03-31T21:16:09.105Z,99.07
2023-03-31T21:18:37.769Z,100.00
2023-03-31T21:21:16.672Z,100.00
2023-03-31T21:23:45.021Z,100.00
2023-03-31T21:26:14.180Z,100.00
2023-03-31T21:28:41.415Z,100.00
2023-03-31T21:31:10.591Z,100.00
2023-03-31T21:33:40.915Z,100.00
2023-03-31T21:36:10.160Z,100.00
2023-03-31T21:38:37.589Z,100.00
2023-03-31T21:41:12.852Z,100.00
2023-03-31T21:43:41.034Z,100.00
2023-03-31T21:46:08.408Z,100.00
2023-03-31T21:48:37.202Z,100.00
2023-03-31T21:51:04.723Z,100.00
2023-03-31T21:53:32.500Z,100.00
2023-03-31T21:56:00.038Z,100.00
2023-03-31T21:58:29.135Z,100.00
2023-03-31T22:01:01.253Z,100.00
2023-03-31T22:03:34.106Z,100.00
2023-03-31T22:06:02.927Z,100.00
2023-03-31T22:08:31.485Z,100.00
2023-03-31T22:11:00.553Z,100.00
2023-03-31T22:13:28.543Z,100.00
2023-03-31T22:15:56.346Z,100.00
2023-03-31T22:18:23.936Z,100.00
2023-03-31T22:20:51.404Z,100.00
2023-03-31T22:23:20.667Z,100.00
2023-03-31T22:25:48.189Z,100.00
2023-03-31T22:28:16.228Z,100.00
2023-03-31T22:30:44.934Z,100.00
2023-03-31T22:33:13.083Z,100.00
2023-03-31T22:35:40.382Z,100.00
2023-03-31T22:38:08.696Z,100.00
2023-03-31T22:40:36.399Z,100.00
2023-03-31T22:43:04.759Z,100.00
2023-03-31T22:45:32.395Z,100.00
2023-03-31T22:47:59.807Z,100.00
2023-03-31T22:50:27.311Z,100.00
2023-03-31T22:52:54.774Z,100.00
2023-03-31T22:55:22.006Z,100.00
2023-03-31T22:57:49.280Z,100.00
2023-03-31T23:00:18.214Z,100.00
2023-03-31T23:02:46.653Z,100.00
2023-03-31T23:05:14.068Z,100.00
2023-03-31T23:07:43.262Z,100.00
2023-03-31T23:10:11.296Z,100.00
2023-03-31T23:12:38.577Z,100.00
2023-03-31T23:15:06.379Z,100.00
2023-03-31T23:17:34.187Z,100.00
2023-03-31T23:20:04.063Z,100.00
2023-03-31T23:22:32.334Z,100.00
2023-03-31T23:24:59.605Z,100.00
2023-03-31T23:27:26.860Z,100.00
2023-03-31T23:29:54.106Z,100.00
2023-03-31T23:32:23.502Z,100.00
2023-03-31T23:34:51.497Z,100.00
2023-03-31T23:37:19.059Z,100.00
2023-03-31T23:39:47.818Z,100.00
2023-03-31T23:42:19.726Z,100.00
2023-03-31T23:44:47.002Z,100.00
2023-03-31T23:47:14.414Z,100.00
2023-03-31T23:49:41.659Z,100.00
2023-03-31T23:52:09.033Z,100.00
2023-03-31T23:54:36.423Z,100.00
2023-03-31T23:57:05.755Z,100.00
2023-03-31T23:59:33.714Z,100.00
